Time;durP1;ratioP1;P1;durP2;ratioP2;P2;SDS_P1;SDS_P2;PMS_P1;PMS_P2;Temp;Humidity;BMP_temperature;BMP_pressure;BME280_temperature;BME280_humidity;BME280_pressure;Samples;Min_cycle;Max_cycle;Signal;HPM_P1;HPM_P2
2021/07/16 00:02:22;;;;;;;6.18;3.47;;;;;;;13.19;100.00;93852.66;5075028;28;20209;-82
2021/07/16 00:04:49;;;;;;;10.52;3.75;;;;;;;13.11;100.00;93845.84;5075114;28;20210;-82
2021/07/16 00:07:15;;;;;;;9.73;3.17;;;;;;;13.06;100.00;93850.94;5075046;28;20207;-81
2021/07/16 00:09:42;;;;;;;11.18;3.55;;;;;;;13.01;100.00;93852.59;5075068;28;20198;-80
2021/07/16 00:12:10;;;;;;;8.18;3.17;;;;;;;12.89;100.00;93855.06;5074894;28;20561;-81
2021/07/16 00:14:37;;;;;;;15.18;3.40;;;;;;;12.81;100.00;93855.34;5074528;28;20194;-82
2021/07/16 00:17:04;;;;;;;122.38;6.90;;;;;;;12.80;100.00;93862.41;5074604;28;20202;-82
2021/07/16 00:19:30;;;;;;;15.25;4.65;;;;;;;12.84;100.00;93865.38;5074813;28;20203;-81
2021/07/16 00:21:57;;;;;;;12.23;4.70;;;;;;;12.98;100.00;93868.75;5072253;28;20230;-81
2021/07/16 00:24:23;;;;;;;14.93;5.18;;;;;;;13.02;100.00;93862.03;5055556;28;20203;-82
2021/07/16 00:26:50;;;;;;;9.25;4.75;;;;;;;13.10;100.00;93867.03;5054347;28;20764;-81
2021/07/16 00:29:17;;;;;;;13.83;6.93;;;;;;;13.26;100.00;93863.09;5065840;28;20434;-82
2021/07/16 00:31:44;;;;;;;14.23;6.32;;;;;;;13.35;100.00;93861.00;5075098;28;20453;-81
2021/07/16 00:34:10;;;;;;;13.75;5.50;;;;;;;13.37;100.00;93864.22;5078074;28;20662;-81
2021/07/16 00:36:37;;;;;;;8.70;4.25;;;;;;;13.33;100.00;93856.78;5074453;28;20228;-82
2021/07/16 00:39:03;;;;;;;10.10;5.40;;;;;;;13.32;100.00;93859.59;5073735;28;20434;-82
2021/07/16 00:41:30;;;;;;;6.70;3.90;;;;;;;13.32;100.00;93859.59;5074339;28;20226;-81
2021/07/16 00:43:56;;;;;;;7.32;3.75;;;;;;;13.26;100.00;93868.31;5074221;28;20199;-82
2021/07/16 00:46:24;;;;;;;6.97;3.58;;;;;;;13.23;100.00;93856.44;5074067;28;20194;-82
2021/07/16 00:48:50;;;;;;;5.60;2.67;;;;;;;13.15;100.00;93859.31;5074340;28;20199;-81
2021/07/16 00:51:17;;;;;;;9.10;2.97;;;;;;;13.08;100.00;93856.75;5074146;28;20260;-82
2021/07/16 00:53:43;;;;;;;8.35;3.38;;;;;;;13.11;100.00;93864.19;5074252;28;20206;-82
2021/07/16 00:56:10;;;;;;;6.93;3.47;;;;;;;13.09;100.00;93868.03;5073972;28;20657;-82
2021/07/16 00:58:36;;;;;;;7.97;3.80;;;;;;;13.10;100.00;93872.28;5074066;28;20252;-81
2021/07/16 01:01:03;;;;;;;6.80;3.63;;;;;;;13.04;100.00;93870.50;5073919;28;20222;-81
2021/07/16 01:03:31;;;;;;;9.75;4.10;;;;;;;12.94;100.00;93860.50;5073948;28;20199;-81
2021/07/16 01:06:00;;;;;;;6.43;4.00;;;;;;;12.92;100.00;93862.50;5073934;28;20203;-81
2021/07/16 01:08:27;;;;;;;6.88;4.20;;;;;;;13.01;100.00;93865.69;5073811;28;20289;-81
2021/07/16 01:10:53;;;;;;;7.30;4.28;;;;;;;13.00;100.00;93862.25;5073732;28;20203;-81
2021/07/16 01:13:20;;;;;;;12.88;5.35;;;;;;;13.10;100.00;93869.66;5073608;28;20710;-81
2021/07/16 01:15:47;;;;;;;7.85;4.38;;;;;;;13.08;100.00;93866.44;5073819;28;20199;-80
2021/07/16 01:18:13;;;;;;;14.55;4.55;;;;;;;13.07;100.00;93870.91;5073753;28;20203;-81
2021/07/16 01:20:41;;;;;;;11.05;4.57;;;;;;;13.04;100.00;93870.50;5073546;28;20202;-80
2021/07/16 01:23:15;;;;;;;10.23;4.43;;;;;;;13.06;100.00;93873.72;5073542;28;20333;-80
2021/07/16 01:25:41;;;;;;;10.05;3.92;;;;;;;13.04;100.00;93879.19;5073175;28;20226;-81
2021/07/16 01:28:08;;;;;;;8.32;4.20;;;;;;;13.08;100.00;93875.09;5073374;28;20249;-82
2021/07/16 01:30:34;;;;;;;14.48;5.68;;;;;;;13.14;100.00;93876.09;5073512;28;20202;-82
2021/07/16 01:33:02;;;;;;;10.50;5.93;;;;;;;13.21;100.00;93881.28;5073439;28;20199;-81
2021/07/16 01:35:29;;;;;;;10.95;5.57;;;;;;;13.20;100.00;93880.44;5073272;28;20203;-82
2021/07/16 01:37:56;;;;;;;9.45;4.72;;;;;;;13.20;100.00;93877.03;5073202;28;20259;-81
2021/07/16 01:40:26;;;;;;;9.00;4.40;;;;;;;13.13;100.00;93875.25;5073131;28;20272;-81
2021/07/16 01:42:55;;;;;;;7.63;4.10;;;;;;;13.10;100.00;93882.75;5073475;28;20253;-81
2021/07/16 01:45:24;;;;;;;11.45;4.15;;;;;;;13.12;100.00;93878.91;5073213;28;20633;-81
2021/07/16 01:47:53;;;;;;;14.43;4.78;;;;;;;13.16;100.00;93874.03;5073254;28;20195;-81
2021/07/16 01:50:20;;;;;;;10.73;4.97;;;;;;;13.17;100.00;93880.88;5073145;28;20194;-82
2021/07/16 01:52:47;;;;;;;8.27;4.47;;;;;;;13.19;100.00;93873.63;5073167;28;20218;-81
2021/07/16 01:55:15;;;;;;;16.23;4.95;;;;;;;13.23;100.00;93874.00;5073492;28;20203;-81
2021/07/16 01:57:47;;;;;;;7.85;4.32;;;;;;;13.24;100.00;93875.56;5072946;28;20202;-81
2021/07/16 02:00:17;;;;;;;9.32;4.50;;;;;;;13.26;100.00;93884.06;5072848;28;20829;-83
2021/07/16 02:02:48;;;;;;;12.40;4.43;;;;;;;13.18;100.00;93882.50;5073412;28;20279;-82
2021/07/16 02:05:15;;;;;;;10.07;4.70;;;;;;;13.18;100.00;93879.88;5073279;28;20203;-82
2021/07/16 02:07:42;;;;;;;6.40;3.92;;;;;;;13.25;100.00;93883.22;5073090;28;20194;-82
2021/07/16 02:10:09;;;;;;;7.25;4.07;;;;;;;13.29;100.00;93881.81;5072990;28;20199;-81
2021/07/16 02:12:36;;;;;;;7.57;4.22;;;;;;;13.31;100.00;93881.59;5072922;28;20259;-82
2021/07/16 02:15:08;;;;;;;13.52;4.78;;;;;;;13.28;100.00;93866.28;5072912;28;20194;-81
2021/07/16 02:17:34;;;;;;;7.75;4.18;;;;;;;13.26;100.00;93869.13;5072524;28;20206;-81
2021/07/16 02:20:00;;;;;;;12.05;4.78;;;;;;;13.33;100.00;93869.88;5072958;28;20249;-82
2021/07/16 02:22:27;;;;;;;8.30;4.68;;;;;;;13.29;100.00;93863.44;5072389;28;20713;-82
2021/07/16 02:24:53;;;;;;;15.48;5.05;;;;;;;13.31;100.00;93871.91;5072877;28;20260;-81
2021/07/16 02:27:20;;;;;;;10.10;5.25;;;;;;;13.32;100.00;93868.31;5072698;28;20226;-81
2021/07/16 02:29:46;;;;;;;12.00;5.57;;;;;;;13.36;100.00;93868.66;5072837;28;20207;-82
2021/07/16 02:32:14;;;;;;;14.20;5.18;;;;;;;13.32;100.00;93862.22;5072756;28;20271;-82
2021/07/16 02:34:40;;;;;;;12.50;6.10;;;;;;;13.32;100.00;93854.38;5072737;28;20205;-81
2021/07/16 02:37:07;;;;;;;11.13;6.22;;;;;;;13.35;100.00;93855.78;5072815;28;20199;-81
2021/07/16 02:39:33;;;;;;;10.02;5.35;;;;;;;13.33;100.00;93853.34;5072602;28;20256;-82
2021/07/16 02:42:00;;;;;;;9.40;5.25;;;;;;;13.32;100.00;93852.56;5072649;28;20226;-80
2021/07/16 02:44:26;;;;;;;15.32;5.25;;;;;;;13.30;100.00;93849.31;5072664;28;20221;-80
2021/07/16 02:46:52;;;;;;;13.35;6.05;;;;;;;13.26;100.00;93852.59;5074422;28;20203;-80
2021/07/16 02:49:20;;;;;;;10.75;5.28;;;;;;;13.25;100.00;93851.78;5076506;28;20199;-79
2021/07/16 02:51:47;;;;;;;15.95;6.15;;;;;;;13.25;100.00;93857.00;5076351;28;20747;-80
2021/07/16 02:54:13;;;;;;;13.18;6.25;;;;;;;13.26;100.00;93858.63;5076396;28;20202;-83
2021/07/16 02:56:39;;;;;;;10.02;5.68;;;;;;;13.22;100.00;93860.09;5076310;28;20248;-80
2021/07/16 02:59:06;;;;;;;11.98;6.35;;;;;;;13.18;100.00;93864.13;5076366;28;20551;-81
2021/07/16 03:01:33;;;;;;;10.00;4.57;;;;;;;13.13;100.00;93870.03;5075958;28;20649;-80
2021/07/16 03:03:59;;;;;;;9.32;4.57;;;;;;;13.08;100.00;93862.00;5076297;28;20207;-82
2021/07/16 03:06:27;;;;;;;6.88;4.35;;;;;;;13.06;100.00;93869.28;5076252;28;20199;-81
2021/07/16 03:08:54;;;;;;;10.10;4.90;;;;;;;13.08;100.00;93862.00;5076195;28;20198;-80
2021/07/16 03:11:20;;;;;;;8.48;4.40;;;;;;;13.10;100.00;93870.44;5076032;28;20203;-82
2021/07/16 03:13:46;;;;;;;7.13;4.47;;;;;;;13.14;100.00;93871.63;5075962;28;20203;-80
2021/07/16 03:16:13;;;;;;;10.52;4.80;;;;;;;13.17;100.00;93870.38;5075866;28;20280;-81
2021/07/16 03:18:40;;;;;;;9.05;5.55;;;;;;;13.21;100.00;93876.81;5076016;28;20252;-80
2021/07/16 03:21:06;;;;;;;10.02;6.32;;;;;;;13.24;100.00;93880.81;5075918;28;20195;-82
2021/07/16 03:23:34;;;;;;;11.95;6.82;;;;;;;13.26;100.00;93878.81;5075848;28;20203;-82
2021/07/16 03:26:00;;;;;;;12.75;7.57;;;;;;;13.31;100.00;93885.00;5074906;28;20442;-80
2021/07/16 03:28:27;;;;;;;17.00;6.88;;;;;;;13.37;100.00;93880.75;5075664;28;20252;-82
2021/07/16 03:30:53;;;;;;;11.35;5.70;;;;;;;13.41;100.00;93884.56;5075517;28;20203;-82
2021/07/16 03:33:20;;;;;;;14.90;7.15;;;;;;;13.40;100.00;93877.69;5075787;28;20259;-82
2021/07/16 03:35:46;;;;;;;12.55;7.35;;;;;;;13.43;100.00;93876.47;5075668;28;20206;-81
2021/07/16 03:38:13;;;;;;;14.98;8.00;;;;;;;13.49;100.00;93878.25;5075594;28;20229;-81
2021/07/16 03:40:40;;;;;;;15.50;8.43;;;;;;;13.59;100.00;93877.72;5075471;28;20206;-80
2021/07/16 03:43:07;;;;;;;13.32;7.68;;;;;;;13.62;100.00;93878.13;5075377;28;20237;-81
2021/07/16 03:45:34;;;;;;;9.77;5.85;;;;;;;13.63;100.00;93879.72;5075249;28;20593;-81
2021/07/16 03:48:00;;;;;;;12.65;7.47;;;;;;;13.63;100.00;93882.34;5075211;28;20665;-80
2021/07/16 03:50:26;;;;;;;8.10;5.95;;;;;;;13.63;100.00;93884.97;5075457;28;20202;-79
2021/07/16 03:52:54;;;;;;;13.32;7.78;;;;;;;13.63;100.00;93884.97;5075314;28;20198;-80
2021/07/16 03:55:20;;;;;;;15.43;6.82;;;;;;;13.62;100.00;93878.13;5075188;28;20203;-80
2021/07/16 03:57:50;;;;;;;13.75;8.15;;;;;;;13.71;100.00;93875.22;5074918;28;20202;-81
2021/07/16 04:00:19;;;;;;;13.07;8.52;;;;;;;13.73;100.00;93875.81;5075504;28;20202;-81
2021/07/16 04:02:45;;;;;;;18.80;9.88;;;;;;;13.65;100.00;93871.63;5075214;28;20230;-82
2021/07/16 04:05:13;;;;;;;23.00;11.70;;;;;;;13.67;100.00;93875.66;5075038;28;20199;-81
2021/07/16 04:07:45;;;;;;;14.23;9.70;;;;;;;13.77;100.00;93879.59;5074414;28;20202;-81
2021/07/16 04:10:12;;;;;;;15.18;9.27;;;;;;;13.78;100.00;93882.00;5074900;28;20205;-80
2021/07/16 04:12:39;;;;;;;15.70;9.68;;;;;;;13.84;100.00;93885.59;5074998;28;20730;-80
2021/07/16 04:15:09;;;;;;;16.60;9.93;;;;;;;13.78;100.00;93889.88;5074971;28;20264;-80
2021/07/16 04:17:35;;;;;;;13.48;7.05;;;;;;;13.80;100.00;93885.19;5074953;28;20199;-80
2021/07/16 04:20:01;;;;;;;9.43;5.68;;;;;;;13.84;100.00;93891.63;5074802;28;20195;-81
2021/07/16 04:22:28;;;;;;;11.30;6.57;;;;;;;13.87;100.00;93891.19;5074651;28;20222;-79
2021/07/16 04:24:55;;;;;;;14.10;8.35;;;;;;;13.92;100.00;93893.16;5075021;28;20210;-81
2021/07/16 04:27:22;;;;;;;13.98;8.50;;;;;;;14.05;100.00;93895.66;5074524;28;20239;-80
2021/07/16 04:29:48;;;;;;;18.42;8.75;;;;;;;13.96;100.00;93894.34;5074546;28;20195;-79
2021/07/16 04:32:16;;;;;;;15.80;8.90;;;;;;;13.96;100.00;93898.78;5074748;28;20202;-81
2021/07/16 04:34:44;;;;;;;16.58;8.57;;;;;;;13.93;100.00;93899.22;5074546;28;20194;-81
2021/07/16 04:37:11;;;;;;;13.77;7.55;;;;;;;13.93;100.00;93904.47;5074474;28;20248;-80
2021/07/16 04:39:39;;;;;;;12.77;8.20;;;;;;;13.84;100.00;93911.81;5074220;28;20210;-81
2021/07/16 04:42:07;;;;;;;10.35;6.63;;;;;;;13.98;100.00;93904.63;5074279;28;20693;-80
2021/07/16 04:44:34;;;;;;;11.98;7.88;;;;;;;14.04;100.00;93917.66;5074375;28;20195;-80
2021/07/16 04:47:01;;;;;;;14.43;7.00;;;;;;;14.09;100.00;93913.56;5074209;28;20653;-80
2021/07/16 04:49:29;;;;;;;12.70;7.32;;;;;;;14.14;100.00;93917.16;5074187;28;20203;-80
2021/07/16 04:51:56;;;;;;;11.73;7.30;;;;;;;14.15;100.00;93912.72;5074022;28;20209;-82
2021/07/16 04:54:22;;;;;;;12.60;8.63;;;;;;;14.03;100.00;93915.25;5073203;28;20438;-81
2021/07/16 04:56:49;;;;;;;12.25;8.05;;;;;;;14.02;100.00;93919.72;5074106;28;20207;-82
2021/07/16 04:59:15;;;;;;;12.00;6.80;;;;;;;14.05;100.00;93918.47;5074111;28;20255;-81
2021/07/16 05:01:42;;;;;;;11.93;8.23;;;;;;;14.13;100.00;93917.38;5073939;28;20199;-81
2021/07/16 05:04:09;;;;;;;14.23;7.80;;;;;;;14.10;100.00;93917.81;5073874;28;20542;-81
2021/07/16 05:06:36;;;;;;;10.52;7.55;;;;;;;14.19;100.00;93919.94;5073704;28;20198;-82
2021/07/16 05:09:03;;;;;;;12.88;7.60;;;;;;;14.23;100.00;93923.72;5073533;28;20207;-80
2021/07/16 05:11:30;;;;;;;11.88;7.95;;;;;;;14.29;100.00;93927.31;5073710;28;20653;-80
2021/07/16 05:13:57;;;;;;;11.02;7.50;;;;;;;14.21;100.00;93922.34;5073639;28;20658;-81
2021/07/16 05:16:23;;;;;;;9.52;7.00;;;;;;;14.28;100.00;93923.06;5073651;28;20244;-81
2021/07/16 05:18:50;;;;;;;13.55;7.85;;;;;;;14.36;100.00;93924.59;5073577;28;20592;-81
2021/07/16 05:21:16;;;;;;;10.45;7.32;;;;;;;14.49;100.00;93928.88;5073441;28;20206;-81
2021/07/16 05:23:44;;;;;;;11.73;8.20;;;;;;;14.43;100.00;93926.13;5073312;28;20791;-81
2021/07/16 05:26:12;;;;;;;9.65;7.18;;;;;;;14.47;100.00;93933.56;5073441;28;20231;-81
2021/07/16 05:28:38;;;;;;;10.25;7.28;;;;;;;14.58;100.00;93927.56;5073537;28;20199;-83
2021/07/16 05:31:05;;;;;;;9.40;6.90;;;;;;;14.77;100.00;93937.06;5073430;28;20202;-82
2021/07/16 05:33:32;;;;;;;11.27;6.53;;;;;;;14.98;100.00;93940.22;5073289;28;20198;-83
2021/07/16 05:35:58;;;;;;;8.23;6.03;;;;;;;14.80;100.00;93946.31;5073578;28;20202;-81
2021/07/16 05:38:25;;;;;;;10.50;6.70;;;;;;;14.74;100.00;93945.38;5072672;28;20442;-80
2021/07/16 05:40:54;;;;;;;7.60;5.55;;;;;;;14.82;100.00;93956.59;5073206;28;20749;-81
2021/07/16 05:43:21;;;;;;;8.52;6.05;;;;;;;14.74;100.00;93961.16;5073270;28;20701;-79
2021/07/16 05:45:48;;;;;;;9.73;6.45;;;;;;;14.93;100.00;93956.66;5073233;28;20205;-82
2021/07/16 05:48:15;;;;;;;9.73;5.93;;;;;;;15.05;100.00;93956.69;5073089;28;20653;-81
2021/07/16 05:50:44;;;;;;;7.13;5.35;;;;;;;14.92;100.00;93959.50;5073108;28;20206;-83
2021/07/16 05:53:10;;;;;;;6.25;4.60;;;;;;;15.13;100.00;93960.84;5073383;28;20256;-82
2021/07/16 05:55:37;;;;;;;6.22;4.22;;;;;;;15.20;100.00;93966.03;5073132;28;20581;-80
2021/07/16 05:58:06;;;;;;;5.20;4.20;;;;;;;15.11;100.00;93958.44;5073049;28;20226;-79
2021/07/16 06:00:34;;;;;;;6.07;4.13;;;;;;;15.10;100.00;93966.56;5072497;28;20198;-80
2021/07/16 06:03:01;;;;;;;4.45;3.58;;;;;;;15.30;100.00;93967.06;5073351;28;20323;-78
2021/07/16 06:05:27;;;;;;;4.55;3.53;;;;;;;15.24;100.00;93969.78;5073127;28;20256;-80
2021/07/16 06:07:54;;;;;;;4.63;3.38;;;;;;;15.28;100.00;93968.31;5073216;28;20225;-80
2021/07/16 06:10:20;;;;;;;8.23;3.90;;;;;;;15.37;100.00;93972.25;5073007;28;20206;-80
2021/07/16 06:12:47;;;;;;;6.05;3.53;;;;;;;15.40;100.00;93971.78;5072940;28;20199;-80
2021/07/16 06:15:15;;;;;;;3.60;2.95;;;;;;;15.58;100.00;93975.38;5072905;28;20203;-80
2021/07/16 06:17:42;;;;;;;4.20;3.47;;;;;;;15.58;100.00;93988.53;5072842;28;20669;-81
2021/07/16 06:20:10;;;;;;;6.93;3.45;;;;;;;15.54;100.00;93983.72;5073074;28;20198;-80
2021/07/16 06:22:37;;;;;;;5.47;4.50;;;;;;;15.45;100.00;93989.53;5075430;28;20522;-80
2021/07/16 06:25:04;;;;;;;4.35;3.50;;;;;;;15.40;100.00;93992.03;5076961;28;20194;-80
2021/07/16 06:27:30;;;;;;;5.03;3.92;;;;;;;15.44;100.00;93999.25;5076810;28;20230;-79
2021/07/16 06:29:57;;;;;;;6.38;3.70;;;;;;;15.53;100.00;94000.53;5072312;28;20220;-81
2021/07/16 06:32:24;;;;;;;6.30;4.10;;;;;;;15.60;100.00;93989.91;5076139;28;20207;-80
2021/07/16 06:34:51;;;;;;;5.10;4.10;;;;;;;15.71;100.00;93991.75;5076525;28;20240;-79
2021/07/16 06:37:17;;;;;;;5.32;3.65;;;;;;;15.90;100.00;93997.78;5076804;28;20252;-80
2021/07/16 06:39:44;;;;;;;7.38;4.10;;;;;;;15.95;100.00;93996.28;5076735;28;20195;-82
2021/07/16 06:42:10;;;;;;;6.55;4.00;;;;;;;16.21;100.00;93995.03;5076663;28;20232;-79
2021/07/16 06:44:37;;;;;;;5.32;3.20;;;;;;;16.26;100.00;94001.22;5076631;28;20202;-82
2021/07/16 06:47:03;;;;;;;4.78;3.78;;;;;;;16.08;100.00;93998.69;5076465;28;20248;-83
2021/07/16 06:49:31;;;;;;;3.83;3.15;;;;;;;16.36;100.00;93999.84;5076624;28;20199;-81
2021/07/16 06:51:59;;;;;;;4.82;2.95;;;;;;;16.35;100.00;94001.66;5076504;28;20260;-83
2021/07/16 06:54:26;;;;;;;3.50;2.72;;;;;;;16.15;100.00;94009.13;5076651;28;20256;-81
2021/07/16 06:56:54;;;;;;;5.10;2.80;;;;;;;16.18;100.00;94012.09;5076282;28;20228;-79
2021/07/16 06:59:21;;;;;;;3.58;2.78;;;;;;;16.21;100.00;94022.16;5076278;28;20207;-80
2021/07/16 07:01:48;;;;;;;3.75;2.78;;;;;;;16.51;100.00;94015.97;5076328;28;20205;-79
2021/07/16 07:04:14;;;;;;;2.95;2.60;;;;;;;17.18;100.00;94018.13;5076157;28;20280;-79
2021/07/16 07:06:43;;;;;;;4.28;2.60;;;;;;;17.94;100.00;94015.25;5076237;28;20256;-79
2021/07/16 07:09:10;;;;;;;4.45;2.42;;;;;;;18.47;100.00;94023.72;5076151;28;20739;-79
2021/07/16 07:11:37;;;;;;;2.40;1.65;;;;;;;18.43;100.00;94022.56;5076188;28;20240;-78
2021/07/16 07:14:04;;;;;;;3.38;2.00;;;;;;;17.61;100.00;94018.63;5076386;28;20252;-78
2021/07/16 07:16:30;;;;;;;6.40;2.17;;;;;;;16.99;100.00;94024.63;5075796;28;20546;-79
2021/07/16 07:18:57;;;;;;;3.60;2.38;;;;;;;16.83;100.00;94024.28;5076106;28;20203;-78
2021/07/16 07:21:23;;;;;;;3.50;2.70;;;;;;;16.08;100.00;94028.47;5075887;28;20198;-79
2021/07/16 07:23:51;;;;;;;6.45;2.90;;;;;;;15.96;100.00;94022.38;5075667;28;20221;-79
2021/07/16 07:26:18;;;;;;;3.85;2.83;;;;;;;16.01;100.00;94022.50;5075777;28;20240;-78
2021/07/16 07:28:44;;;;;;;3.15;2.85;;;;;;;15.95;100.00;94028.69;5075836;28;20199;-78
2021/07/16 07:31:11;;;;;;;3.72;3.20;;;;;;;16.17;100.00;94020.22;5075828;28;20211;-78
2021/07/16 07:33:38;;;;;;;4.40;3.17;;;;;;;16.35;100.00;94019.31;5075304;28;20202;-78
2021/07/16 07:36:05;;;;;;;4.60;3.45;;;;;;;16.31;100.00;94020.81;5075602;28;20206;-78
2021/07/16 07:38:32;;;;;;;4.63;3.10;;;;;;;16.12;100.00;94020.09;5075580;28;20268;-80
2021/07/16 07:41:00;;;;;;;4.93;3.35;;;;;;;16.27;100.00;94023.91;5075409;28;20206;-79
2021/07/16 07:43:27;;;;;;;4.82;3.28;;;;;;;16.16;100.00;94034.44;5075426;28;20692;-79
2021/07/16 07:45:54;;;;;;;5.45;3.63;;;;;;;15.88;100.00;94030.63;5075275;28;20195;-78
2021/07/16 07:48:21;;;;;;;5.45;4.03;;;;;;;15.77;100.00;94029.59;5075219;28;20199;-79
2021/07/16 07:50:47;;;;;;;6.45;4.45;;;;;;;15.69;100.00;94029.88;5075385;28;20248;-80
2021/07/16 07:53:14;;;;;;;6.25;4.40;;;;;;;15.81;100.00;94036.00;5075152;28;20206;-78
2021/07/16 07:55:40;;;;;;;7.05;4.05;;;;;;;16.11;100.00;94043.03;5075122;28;20707;-77
2021/07/16 07:58:08;;;;;;;5.40;4.00;;;;;;;16.56;100.00;94041.66;5075069;28;20203;-80
2021/07/16 08:00:34;;;;;;;4.93;3.92;;;;;;;17.06;100.00;94046.41;5075178;28;20206;-82
2021/07/16 08:03:01;;;;;;;4.85;3.72;;;;;;;17.63;100.00;94035.03;5075173;28;20218;-80
2021/07/16 08:05:27;;;;;;;4.15;3.38;;;;;;;18.14;100.00;94042.25;5075052;28;20256;-82
2021/07/16 08:07:54;;;;;;;4.28;3.20;;;;;;;18.51;100.00;94039.88;5075120;28;20562;-82
2021/07/16 08:10:23;;;;;;;5.75;3.08;;;;;;;18.18;100.00;94041.50;5075213;28;20207;-80
2021/07/16 08:12:50;;;;;;;4.68;3.30;;;;;;;18.09;100.00;94040.31;5075144;28;20241;-81
2021/07/16 08:15:19;;;;;;;3.40;3.08;;;;;;;17.96;100.00;94046.72;5074860;28;20604;-81
2021/07/16 08:17:46;;;;;;;5.45;3.13;;;;;;;17.92;100.00;94053.53;5074943;28;20202;-80
2021/07/16 08:20:12;;;;;;;5.80;3.45;;;;;;;18.05;100.00;94042.66;5074913;28;20252;-80
2021/07/16 08:22:40;;;;;;;3.58;2.97;;;;;;;17.75;100.00;94046.34;5076873;28;20206;-80
2021/07/16 08:25:08;;;;;;;4.72;2.97;;;;;;;17.78;100.00;94046.91;5074667;28;20621;-82
2021/07/16 08:27:35;;;;;;;5.30;3.53;;;;;;;17.86;100.00;94043.88;5075079;28;20248;-79
2021/07/16 08:30:01;;;;;;;4.55;3.47;;;;;;;17.32;100.00;94055.63;5075863;28;20244;-82
2021/07/16 08:32:29;;;;;;;5.05;3.00;;;;;;;17.48;100.00;94053.25;5074820;28;20662;-82
2021/07/16 08:34:55;;;;;;;3.90;3.50;;;;;;;17.79;100.00;94051.16;5074099;28;20438;-80
2021/07/16 08:37:22;;;;;;;5.03;3.40;;;;;;;17.98;100.00;94052.56;5075114;28;20203;-84
2021/07/16 08:39:48;;;;;;;3.72;3.25;;;;;;;18.27;100.00;94050.66;5075781;28;20244;-81
2021/07/16 08:42:15;;;;;;;4.03;3.00;;;;;;;18.35;100.00;94051.28;5057484;28;20658;-81
2021/07/16 08:44:43;;;;;;;3.58;2.75;;;;;;;18.62;100.00;94060.13;5073359;28;20227;-83
2021/07/16 08:47:11;;;;;;;3.03;2.55;;;;;;;18.47;100.00;94055.44;5074190;28;20211;-79
2021/07/16 08:49:40;;;;;;;3.88;2.67;;;;;;;18.36;100.00;94055.53;5074281;28;20199;-79
2021/07/16 08:52:07;;;;;;;4.15;3.15;;;;;;;18.14;100.00;94058.09;5074163;28;20206;-78
2021/07/16 08:54:37;;;;;;;4.13;3.05;;;;;;;17.78;100.00;94065.41;5074027;28;20662;-80
2021/07/16 08:57:04;;;;;;;6.93;3.40;;;;;;;17.82;100.00;94063.88;5074680;28;20385;-81
2021/07/16 08:59:30;;;;;;;3.83;3.10;;;;;;;18.07;100.00;94066.19;5074106;28;20260;-77
2021/07/16 09:01:57;;;;;;;5.72;4.18;;;;;;;17.81;100.00;94064.94;5073765;28;20206;-79
2021/07/16 09:04:24;;;;;;;5.72;3.97;;;;;;;17.67;100.00;94067.88;5073920;28;20230;-80
2021/07/16 09:06:53;;;;;;;5.40;3.78;;;;;;;18.26;100.00;94064.09;5073910;28;20206;-79
2021/07/16 09:09:21;;;;;;;4.65;3.47;;;;;;;18.84;100.00;94070.78;5073668;28;20206;-77
2021/07/16 09:11:49;;;;;;;4.75;3.90;;;;;;;18.75;100.00;94059.00;5073842;28;20206;-77
2021/07/16 09:14:21;;;;;;;6.65;3.67;;;;;;;19.21;100.00;94058.78;5073786;28;20202;-81
2021/07/16 09:17:00;;;;;;;5.75;4.05;;;;;;;18.81;100.00;94068.59;5073541;28;20290;-80
2021/07/16 09:19:32;;;;;;;4.93;4.00;;;;;;;18.94;100.00;94059.53;5073692;28;20290;-77
2021/07/16 09:22:02;;;;;;;8.63;3.60;;;;;;;18.93;100.00;94065.06;5073484;28;20670;-78
2021/07/16 09:24:29;;;;;;;5.35;4.30;;;;;;;19.00;100.00;94063.03;5073315;28;20222;-78
2021/07/16 09:26:55;;;;;;;5.38;3.78;;;;;;;18.99;100.00;94064.09;5073118;28;20238;-77
2021/07/16 09:29:28;;;;;;;5.40;4.22;;;;;;;18.52;100.00;94060.00;5073597;28;20253;-76
2021/07/16 09:32:03;;;;;;;5.07;4.03;;;;;;;18.49;100.00;94063.91;5073381;28;20209;-78
2021/07/16 09:34:29;;;;;;;5.20;4.20;;;;;;;18.73;100.00;94057.63;5073434;28;20203;-77
2021/07/16 09:36:57;;;;;;;6.38;3.72;;;;;;;18.64;100.00;94065.97;5073409;28;20202;-76
2021/07/16 09:39:27;;;;;;;7.63;3.90;;;;;;;18.56;100.00;94062.97;5073150;28;20653;-78
2021/07/16 09:41:55;;;;;;;5.47;3.58;;;;;;;18.33;100.00;94059.44;5073339;28;20270;-77
2021/07/16 09:44:29;;;;;;;3.67;3.25;;;;;;;18.31;100.00;94057.03;5073107;28;20289;-77
2021/07/16 09:47:10;;;;;;;8.65;4.10;;;;;;;17.83;100.00;94047.00;5073045;28;20715;-78
2021/07/16 09:49:37;;;;;;;5.82;3.45;;;;;;;17.48;100.00;94055.88;5073509;28;20198;-77
2021/07/16 09:52:08;;;;;;;3.80;3.40;;;;;;;17.42;100.00;94047.09;5073180;28;20252;-79
2021/07/16 09:54:36;;;;;;;4.65;3.17;;;;;;;17.72;100.00;94057.38;5073181;28;20562;-79
2021/07/16 09:57:03;;;;;;;7.28;3.78;;;;;;;18.08;100.00;94054.56;5073231;28;20202;-80
2021/07/16 09:59:29;;;;;;;4.18;3.30;;;;;;;18.22;100.00;94053.22;5072751;28;20228;-79
2021/07/16 10:01:56;;;;;;;3.05;2.70;;;;;;;18.55;100.00;94053.41;5072866;28;20681;-79
2021/07/16 10:04:23;;;;;;;4.28;2.40;;;;;;;19.00;100.00;94058.56;5072569;28;20457;-80
2021/07/16 10:06:52;;;;;;;2.92;1.92;;;;;;;19.32;100.00;94059.72;5073171;28;20237;-79
2021/07/16 10:09:21;;;;;;;2.20;2.00;;;;;;;19.10;100.00;94049.94;5073103;28;20260;-78
2021/07/16 10:11:50;;;;;;;2.92;2.15;;;;;;;19.25;100.00;94059.88;5072817;28;20672;-77
2021/07/16 10:14:18;;;;;;;2.28;1.98;;;;;;;19.27;100.00;94059.66;5073407;28;20194;-79
2021/07/16 10:16:45;;;;;;;2.30;1.90;;;;;;;19.21;100.00;94058.78;5072685;28;20195;-77
2021/07/16 10:19:12;;;;;;;1.70;1.60;;;;;;;19.41;100.00;94059.00;5072893;28;20227;-76
2021/07/16 10:21:41;;;;;;;5.72;1.80;;;;;;;19.34;100.00;94062.91;5073342;28;20210;-77
2021/07/16 10:24:10;;;;;;;4.50;1.90;;;;;;;19.28;100.00;94059.41;5072751;28;20218;-79
2021/07/16 10:26:36;;;;;;;1.92;1.73;;;;;;;19.13;100.00;94062.66;5072713;28;20231;-77
2021/07/16 10:29:34;;;;;;;5.35;2.08;;;;;;;18.97;100.00;94061.69;5072773;28;20210;-77
2021/07/16 10:32:00;;;;;;;5.50;1.80;;;;;;;19.20;100.00;94059.84;5072962;28;20607;-77
2021/07/16 10:34:35;;;;;;;2.70;1.85;;;;;;;19.51;100.00;94073.44;5072602;28;20649;-77
2021/07/16 10:37:07;;;;;;;1.70;1.40;;;;;;;19.52;97.80;94072.41;5072730;28;20198;-78
2021/07/16 10:39:43;;;;;;;2.00;1.70;;;;;;;19.67;99.54;94066.44;5072695;28;20206;-77
2021/07/16 10:42:46;;;;;;;2.22;1.83;;;;;;;19.20;100.00;94071.25;5072607;28;20194;-76
2021/07/16 10:45:14;;;;;;;1.70;1.48;;;;;;;19.78;95.30;94073.47;5072615;28;20317;-79
2021/07/16 10:47:45;;;;;;;7.38;2.00;;;;;;;19.63;100.00;94084.66;5072608;28;20198;-77
2021/07/16 10:50:15;;;;;;;3.97;1.83;;;;;;;19.46;100.00;94082.13;5072473;28;20210;-77
2021/07/16 10:52:48;;;;;;;2.13;1.67;;;;;;;19.34;100.00;94081.47;5072518;28;20390;-76
2021/07/16 10:55:17;;;;;;;2.42;1.92;;;;;;;19.43;100.00;94085.25;5072717;28;20265;-78
2021/07/16 10:57:45;;;;;;;3.40;2.05;;;;;;;19.17;100.00;94079.66;5072440;28;20649;-78
2021/07/16 11:00:34;;;;;;;2.10;1.88;;;;;;;19.09;100.00;94088.03;5072312;28;20256;-79
2021/07/16 11:03:07;;;;;;;4.13;2.08;;;;;;;18.92;100.00;94082.78;5072269;28;20203;-79
2021/07/16 11:05:54;;;;;;;2.60;2.00;;;;;;;18.81;100.00;94084.47;5072493;28;20326;-79
2021/07/16 11:08:51;;;;;;;3.88;2.10;;;;;;;18.99;100.00;94087.91;5073125;28;20238;-81
2021/07/16 11:11:19;;;;;;;2.88;2.10;;;;;;;18.84;100.00;94086.66;5055859;28;20199;-79
2021/07/16 11:13:47;;;;;;;2.75;1.98;;;;;;;18.71;100.00;94091.47;5055880;28;20565;-79
2021/07/16 11:16:41;;;;;;;3.45;1.90;;;;;;;18.75;100.00;94105.78;5055842;28;20241;-78
2021/07/16 11:19:25;;;;;;;2.45;1.83;;;;;;;18.78;100.00;94103.47;5056262;28;20286;-78
2021/07/16 11:22:08;;;;;;;2.75;1.85;;;;;;;18.84;100.00;94105.16;5056042;28;20195;-79
2021/07/16 11:24:40;;;;;;;4.15;1.90;;;;;;;18.68;100.00;94105.97;5071199;28;20218;-80
2021/07/16 11:27:13;;;;;;;2.80;2.42;;;;;;;18.62;100.00;94106.97;5075581;28;20295;-80